Time;durP1;ratioP1;P1;durP2;ratioP2;P2;SDS_P1;SDS_P2;PMS_P1;PMS_P2;Temp;Humidity;BMP_temperature;BMP_pressure;BME280_temperature;BME280_humidity;BME280_pressure;Samples;Min_cycle;Max_cycle;Signal;HPM_P1;HPM_P2
2021/04/13 00:00:49;;;;;;;1.17;0.80;;;3.00;99.90;;;;;;5040665;28;20041;-73
2021/04/13 00:03:15;;;;;;;1.15;0.73;;;3.00;99.90;;;;;;5025394;28;20045;-72
2021/04/13 00:05:41;;;;;;;1.10;0.60;;;3.00;99.90;;;;;;5024155;28;20141;-73
2021/04/13 00:08:18;;;;;;;3.78;0.75;;;3.00;99.90;;;;;;5023974;28;20029;-74
2021/04/13 00:10:49;;;;;;;1.67;0.75;;;2.90;99.90;;;;;;5024079;28;20093;-74
2021/04/13 00:13:16;;;;;;;0.95;0.32;;;2.90;99.90;;;;;;5025339;28;20037;-73
2021/04/13 00:15:56;;;;;;;2.25;0.80;;;2.90;99.90;;;;;;5024486;28;20026;-74
2021/04/13 00:18:28;;;;;;;2.10;0.82;;;2.80;99.90;;;;;;5024248;28;20050;-76
2021/04/13 00:21:26;;;;;;;0.95;0.45;;;2.80;99.90;;;;;;5025313;28;20034;-74
2021/04/13 00:23:53;;;;;;;1.85;1.05;;;2.70;99.90;;;;;;5025242;28;20038;-73
2021/04/13 00:26:25;;;;;;;1.20;0.73;;;2.70;99.90;;;;;;5023602;28;20184;-74
2021/04/13 00:28:53;;;;;;;6.57;1.17;;;2.70;99.90;;;;;;5025541;28;20400;-74
2021/04/13 00:34:27;;;;;;;1.70;0.80;;;2.80;99.90;;;;;;5024476;28;20056;-71
2021/04/13 00:37:08;;;;;;;0.75;0.52;;;2.70;99.90;;;;;;5024998;28;20026;-72
2021/04/13 00:39:34;;;;;;;4.97;0.60;;;2.70;99.90;;;;;;5024874;28;20037;-72
2021/04/13 00:42:03;;;;;;;1.60;0.50;;;2.70;99.90;;;;;;5024641;28;20033;-73
2021/04/13 00:44:33;;;;;;;2.08;0.88;;;2.70;99.90;;;;;;5024522;28;20041;-71
2021/04/13 00:47:08;;;;;;;3.75;1.33;;;2.70;99.90;;;;;;5023319;28;20034;-73
2021/04/13 00:49:37;;;;;;;1.63;0.98;;;2.70;99.90;;;;;;5024940;28;20029;-74
2021/04/13 00:52:10;;;;;;;2.08;0.75;;;2.70;99.90;;;;;;5023259;28;20037;-73
2021/04/13 00:54:41;;;;;;;2.28;0.85;;;2.70;99.90;;;;;;5039339;28;20034;-73
2021/04/13 00:57:13;;;;;;;1.83;1.02;;;2.70;99.90;;;;;;5024860;28;20057;-74
2021/04/13 00:59:39;;;;;;;17.05;1.02;;;2.60;99.90;;;;;;5024839;28;20029;-73
2021/04/13 01:02:14;;;;;;;0.98;0.73;;;2.60;99.90;;;;;;5024685;28;20113;-74
2021/04/13 01:04:44;;;;;;;2.13;0.77;;;2.60;99.90;;;;;;5023447;28;20037;-73
2021/04/13 01:07:15;;;;;;;3.97;0.85;;;2.50;99.90;;;;;;5023142;28;20094;-74
2021/04/13 01:09:45;;;;;;;1.02;0.45;;;2.50;99.90;;;;;;5023489;28;20026;-73
2021/04/13 01:12:21;;;;;;;0.50;0.45;;;2.50;99.90;;;;;;5024455;28;20021;-73
2021/04/13 01:14:48;;;;;;;1.65;0.50;;;2.40;99.90;;;;;;5024745;28;20034;-72
2021/04/13 01:17:15;;;;;;;1.95;1.08;;;2.40;99.90;;;;;;5024529;28;20029;-71
2021/04/13 01:20:02;;;;;;;1.27;0.90;;;2.40;99.90;;;;;;5024257;28;20046;-70
2021/04/13 01:22:39;;;;;;;1.77;1.08;;;2.40;99.90;;;;;;5024719;28;20449;-74
2021/04/13 01:25:08;;;;;;;3.20;1.08;;;2.40;99.90;;;;;;5024577;28;20097;-72
2021/04/13 01:27:34;;;;;;;6.45;0.90;;;2.40;99.90;;;;;;5024481;28;20030;-72
2021/04/13 01:30:05;;;;;;;1.88;0.95;;;2.30;99.90;;;;;;5023122;28;20030;-72
2021/04/13 01:32:31;;;;;;;1.05;0.60;;;2.30;99.90;;;;;;5024314;28;20037;-73
2021/04/13 01:35:08;;;;;;;9.85;1.15;;;2.30;99.90;;;;;;5023244;28;20026;-71
2021/04/13 01:38:17;;;;;;;1.45;0.93;;;2.30;99.90;;;;;;5024587;28;20414;-72
2021/04/13 01:41:02;;;;;;;3.22;1.00;;;2.30;99.90;;;;;;5024345;28;20494;-72
2021/04/13 01:43:30;;;;;;;2.13;0.75;;;2.30;99.90;;;;;;5022955;28;20042;-73
2021/04/13 01:45:58;;;;;;;2.08;1.27;;;2.20;99.90;;;;;;5026528;28;20033;-70
2021/04/13 01:48:24;;;;;;;1.35;1.05;;;2.20;99.90;;;;;;5028204;28;20030;-72
2021/04/13 01:51:04;;;;;;;10.07;1.40;;;2.20;99.90;;;;;;5030568;28;20029;-71
2021/04/13 01:53:36;;;;;;;1.77;0.90;;;2.20;99.90;;;;;;5047535;28;20029;-73
2021/04/13 01:56:06;;;;;;;1.20;0.88;;;2.10;99.90;;;;;;5046286;28;20052;-72
2021/04/13 01:58:45;;;;;;;4.47;1.60;;;2.10;99.90;;;;;;5047546;28;20089;-71
2021/04/13 02:01:31;;;;;;;2.28;0.93;;;2.10;99.90;;;;;;5046206;28;20028;-72
2021/04/13 02:04:05;;;;;;;4.13;0.93;;;2.10;99.90;;;;;;5047222;28;20033;-72
2021/04/13 02:06:38;;;;;;;2.28;1.08;;;2.10;99.90;;;;;;5047461;28;20067;-71
2021/04/13 02:09:14;;;;;;;4.45;0.90;;;2.00;99.90;;;;;;5046183;28;20089;-69
2021/04/13 02:11:42;;;;;;;1.05;0.75;;;2.00;99.90;;;;;;5047188;28;20032;-73
2021/04/13 02:14:17;;;;;;;2.03;0.75;;;2.00;99.90;;;;;;5045886;28;20470;-73
2021/04/13 02:17:01;;;;;;;3.95;0.75;;;2.00;99.90;;;;;;5047237;28;20568;-70
2021/04/13 02:19:27;;;;;;;2.15;1.00;;;2.00;99.90;;;;;;5045627;28;20057;-71
2021/04/13 02:22:01;;;;;;;3.17;1.13;;;2.00;99.90;;;;;;5047335;28;20021;-72
2021/04/13 02:24:33;;;;;;;8.85;1.05;;;1.90;99.90;;;;;;5047101;28;20060;-71
2021/04/13 02:27:04;;;;;;;0.68;0.50;;;1.90;99.90;;;;;;5047767;28;20021;-72
2021/04/13 02:29:40;;;;;;;3.03;1.05;;;1.90;99.90;;;;;;5046994;28;20435;-71
2021/04/13 02:32:24;;;;;;;2.35;0.93;;;1.90;99.90;;;;;;5047083;28;20041;-70
2021/04/13 02:34:54;;;;;;;1.73;0.55;;;1.90;99.90;;;;;;5047062;28;20037;-72
2021/04/13 02:37:51;;;;;;;6.90;0.88;;;1.90;99.90;;;;;;5046052;28;20034;-73
2021/04/13 02:40:27;;;;;;;1.52;1.20;;;1.90;99.90;;;;;;5046881;28;20030;-74
2021/04/13 02:42:57;;;;;;;4.38;1.27;;;1.90;99.90;;;;;;5045647;28;20052;-71
2021/04/13 02:45:28;;;;;;;1.67;0.65;;;1.90;99.90;;;;;;5045529;28;20029;-71
2021/04/13 02:48:01;;;;;;;2.55;0.70;;;1.90;99.90;;;;;;5046839;28;20083;-74
2021/04/13 02:50:27;;;;;;;2.45;0.88;;;1.90;99.90;;;;;;5045589;28;20029;-71
2021/04/13 02:52:54;;;;;;;1.80;1.33;;;1.90;99.90;;;;;;5046756;28;20029;-71
2021/04/13 02:55:28;;;;;;;4.32;1.05;;;1.90;99.90;;;;;;5045833;28;20021;-71
2021/04/13 02:57:55;;;;;;;;;;;1.90;99.90;;;;;;5046979;28;20018;-72
2021/04/13 03:00:34;;;;;;;0.88;0.82;;;1.80;99.90;;;;;;5046427;28;19912;-72
2021/04/13 03:03:10;;;;;;;2.10;0.75;;;1.90;99.90;;;;;;5046311;28;20429;-70
2021/04/13 03:05:37;;;;;;;8.98;1.38;;;1.90;99.90;;;;;;5046215;28;20085;-71
2021/04/13 03:08:14;;;;;;;1.58;1.08;;;1.90;99.90;;;;;;5045087;28;20084;-73
2021/04/13 03:10:44;;;;;;;7.50;1.02;;;1.90;99.90;;;;;;5044887;28;20033;-71
2021/04/13 03:13:16;;;;;;;2.60;0.60;;;1.90;99.90;;;;;;5046049;28;20130;-71
2021/04/13 03:15:49;;;;;;;8.38;1.08;;;2.00;99.90;;;;;;5045898;28;20030;-75
2021/04/13 03:18:19;;;;;;;5.75;1.85;;;2.00;99.90;;;;;;5045919;28;20089;-72
2021/04/13 03:20:48;;;;;;;2.80;0.90;;;1.90;99.90;;;;;;5045930;28;20041;-73
2021/04/13 03:23:16;;;;;;;5.43;1.33;;;1.90;99.90;;;;;;5046033;28;20033;-71
2021/04/13 03:26:02;;;;;;;5.43;1.17;;;1.90;99.90;;;;;;5045970;28;20090;-72
2021/04/13 03:28:33;;;;;;;4.78;1.55;;;1.90;99.90;;;;;;5044643;28;20034;-74
2021/04/13 03:31:00;;;;;;;0.47;0.47;;;1.80;99.90;;;;;;5044542;28;20052;-71
2021/04/13 03:33:32;;;;;;;2.42;1.25;;;1.80;99.90;;;;;;5045866;28;20040;-72
2021/04/13 03:36:06;;;;;;;4.15;1.10;;;1.80;99.90;;;;;;5045674;28;20033;-72
2021/04/13 03:38:34;;;;;;;1.05;0.75;;;1.80;99.90;;;;;;5045603;28;20093;-73
2021/04/13 03:41:00;;;;;;;2.47;1.48;;;1.80;99.90;;;;;;5045624;28;20022;-71
2021/04/13 03:43:28;;;;;;;1.48;1.30;;;1.80;99.90;;;;;;5045531;28;20041;-74
2021/04/13 03:46:00;;;;;;;1.67;0.80;;;1.80;99.90;;;;;;5045520;28;20035;-69
2021/04/13 03:48:29;;;;;;;1.67;0.90;;;1.80;99.90;;;;;;5045630;28;20097;-71
2021/04/13 03:51:07;;;;;;;5.45;1.00;;;1.70;99.90;;;;;;5045614;28;20093;-73
2021/04/13 03:53:37;;;;;;;5.35;1.73;;;1.70;99.90;;;;;;5045413;28;20429;-72
2021/04/13 03:56:15;;;;;;;0.95;0.50;;;1.70;99.90;;;;;;5045218;28;20048;-73
2021/04/13 03:58:53;;;;;;;2.25;1.48;;;1.70;99.90;;;;;;5045379;28;20025;-73
2021/04/13 04:01:23;;;;;;;1.67;1.02;;;1.70;99.90;;;;;;5045248;28;20041;-73
2021/04/13 04:04:00;;;;;;;2.15;1.00;;;1.70;99.90;;;;;;5045409;28;20095;-70
2021/04/13 04:06:41;;;;;;;1.45;0.88;;;1.70;99.90;;;;;;5045310;28;20029;-71
2021/04/13 04:09:15;;;;;;;6.68;1.17;;;1.70;99.90;;;;;;5043674;28;20034;-71
2021/04/13 04:11:41;;;;;;;2.20;0.82;;;1.70;99.90;;;;;;5045230;28;20045;-71
2021/04/13 04:14:14;;;;;;;3.80;0.88;;;1.70;99.90;;;;;;5044861;28;20088;-72
2021/04/13 04:16:40;;;;;;;4.22;1.42;;;1.70;99.90;;;;;;5043470;28;20064;-71
2021/04/13 04:19:19;;;;;;;3.88;1.35;;;1.70;99.90;;;;;;5043308;28;20453;-75
2021/04/13 04:22:01;;;;;;;2.72;0.85;;;1.70;99.90;;;;;;5044834;28;20042;-71
2021/04/13 04:24:39;;;;;;;0.70;0.50;;;1.70;99.90;;;;;;5044828;28;20037;-71
2021/04/13 04:27:30;;;;;;;3.15;0.70;;;1.70;99.90;;;;;;5044811;28;20029;-73
2021/04/13 04:30:19;;;;;;;5.35;2.03;;;1.70;99.90;;;;;;5044698;28;20053;-72
2021/04/13 04:32:45;;;;;;;2.38;0.73;;;1.70;99.90;;;;;;5045032;28;20060;-70
2021/04/13 04:35:29;;;;;;;5.63;1.17;;;1.70;99.90;;;;;;5044624;28;20029;-73
2021/04/13 04:38:03;;;;;;;4.07;1.38;;;1.80;99.90;;;;;;5043599;28;20048;-71
2021/04/13 04:40:29;;;;;;;3.17;1.25;;;1.80;99.90;;;;;;5044685;28;20537;-74
2021/04/13 04:43:02;;;;;;;6.50;0.82;;;1.80;99.90;;;;;;5044560;28;20041;-70
2021/04/13 04:45:42;;;;;;;4.55;1.17;;;1.80;99.90;;;;;;5044316;28;20032;-75
2021/04/13 04:48:36;;;;;;;10.35;1.67;;;1.90;99.90;;;;;;5044334;28;20037;-71
2021/04/13 04:51:11;;;;;;;2.45;1.00;;;1.90;99.90;;;;;;5044307;28;20088;-72
2021/04/13 04:53:39;;;;;;;2.38;0.77;;;1.90;99.90;;;;;;5044348;28;20025;-71
2021/04/13 04:56:09;;;;;;;2.70;1.33;;;1.90;99.90;;;;;;5044169;28;20025;-71
2021/04/13 04:58:36;;;;;;;3.13;1.25;;;2.00;99.90;;;;;;5044279;28;20033;-71
2021/04/13 05:01:03;;;;;;;2.08;1.48;;;2.00;99.90;;;;;;5042880;28;20026;-74
2021/04/13 05:03:29;;;;;;;3.28;1.25;;;2.00;99.90;;;;;;5044122;28;20044;-71
2021/04/13 05:05:56;;;;;;;4.90;1.05;;;2.00;99.90;;;;;;5044240;28;20097;-74
2021/04/13 05:08:23;;;;;;;4.40;1.08;;;2.00;99.90;;;;;;5044086;28;20017;-74
2021/04/13 05:10:50;;;;;;;5.63;1.65;;;2.00;99.90;;;;;;5044257;28;20026;-71
2021/04/13 05:13:17;;;;;;;4.47;1.60;;;2.10;99.90;;;;;;5043977;28;20037;-72
2021/04/13 05:15:42;;;;;;;5.72;1.77;;;2.10;99.90;;;;;;5042315;28;20057;-71
2021/04/13 05:18:08;;;;;;;3.95;1.40;;;2.10;99.90;;;;;;5043504;28;20026;-71
2021/04/13 05:20:34;;;;;;;6.65;1.60;;;2.10;99.90;;;;;;5047397;28;20029;-73
2021/04/13 05:22:59;;;;;;;4.07;2.05;;;2.10;99.90;;;;;;5047747;28;20093;-72
2021/04/13 05:25:26;;;;;;;3.60;1.38;;;2.10;99.90;;;;;;5041177;28;20513;-73
2021/04/13 05:27:52;;;;;;;1.35;1.08;;;2.20;99.90;;;;;;5037370;28;20082;-73
2021/04/13 05:30:20;;;;;;;5.43;1.15;;;2.20;99.90;;;;;;5034245;28;20046;-74
2021/04/13 05:32:46;;;;;;;1.35;1.10;;;2.20;99.90;;;;;;5038408;28;20064;-72
2021/04/13 05:35:13;;;;;;;2.88;1.05;;;2.20;99.90;;;;;;5031086;28;20030;-73
2021/04/13 05:37:38;;;;;;;3.75;1.83;;;2.20;99.90;;;;;;5033912;28;20101;-74
2021/04/13 05:40:07;;;;;;;1.80;1.10;;;2.30;99.90;;;;;;5027609;28;20072;-75
2021/04/13 05:42:33;;;;;;;4.50;1.15;;;2.30;99.90;;;;;;5027472;28;20469;-73
2021/04/13 05:45:01;;;;;;;2.15;1.13;;;2.40;99.90;;;;;;5027484;28;20101;-74
2021/04/13 05:47:30;;;;;;;3.00;1.45;;;2.60;99.90;;;;;;5027720;28;20034;-74
2021/04/13 05:49:57;;;;;;;4.07;1.77;;;2.60;99.90;;;;;;5027713;28;20037;-73
2021/04/13 05:52:23;;;;;;;8.63;1.67;;;2.60;99.90;;;;;;5027826;28;20026;-75
2021/04/13 05:54:48;;;;;;;2.20;1.70;;;2.70;99.90;;;;;;5027390;28;21091;-73
2021/04/13 05:57:19;;;;;;;6.72;1.20;;;2.70;99.90;;;;;;5027302;28;20022;-72
2021/04/13 05:59:45;;;;;;;3.35;0.95;;;2.70;99.90;;;;;;5027489;28;20026;-74
2021/04/13 06:02:14;;;;;;;1.40;0.93;;;2.70;99.90;;;;;;5026073;28;20030;-74
2021/04/13 06:04:40;;;;;;;3.33;1.15;;;2.70;99.90;;;;;;5026996;28;20045;-73
2021/04/13 06:07:06;;;;;;;4.00;1.55;;;2.70;99.90;;;;;;5027114;28;20025;-76
2021/04/13 06:09:32;;;;;;;3.75;1.23;;;2.70;99.90;;;;;;5026889;28;20156;-73
2021/04/13 06:11:59;;;;;;;4.68;1.33;;;2.70;99.90;;;;;;5026710;28;20029;-74
2021/04/13 06:14:25;;;;;;;4.30;1.45;;;2.70;99.90;;;;;;5026456;28;20033;-72
2021/04/13 06:16:51;;;;;;;3.03;1.13;;;2.80;99.90;;;;;;5026477;28;20110;-74
2021/04/13 06:19:18;;;;;;;2.20;1.40;;;2.80;99.90;;;;;;5025124;28;20740;-71
2021/04/13 06:21:45;;;;;;;2.65;1.00;;;2.80;99.90;;;;;;5026534;28;20029;-73
2021/04/13 06:24:11;;;;;;;2.20;1.15;;;2.90;99.90;;;;;;5031060;28;20037;-72
2021/04/13 06:26:37;;;;;;;4.03;1.27;;;2.90;99.90;;;;;;5035342;28;20076;-72
2021/04/13 06:29:03;;;;;;;1.98;0.70;;;2.90;99.90;;;;;;5037666;28;20052;-73
2021/04/13 06:31:29;;;;;;;9.20;0.98;;;2.90;99.90;;;;;;5032553;28;20033;-74
2021/04/13 06:33:55;;;;;;;3.30;1.23;;;3.00;99.90;;;;;;5025762;28;20034;-74
2021/04/13 06:36:27;;;;;;;8.40;1.17;;;3.00;99.90;;;;;;5027329;28;20049;-76
2021/04/13 06:38:54;;;;;;;1.88;1.25;;;3.20;99.90;;;;;;5026779;28;20030;-73
2021/04/13 06:41:39;;;;;;;4.03;1.33;;;3.20;99.90;;;;;;5026170;28;20041;-73
2021/04/13 06:44:37;;;;;;;1.13;0.77;;;3.30;99.90;;;;;;5025484;28;20061;-72
2021/04/13 06:47:40;;;;;;;2.90;1.02;;;3.40;99.90;;;;;;5026702;28;20049;-73
2021/04/13 06:50:32;;;;;;;3.53;0.80;;;3.50;99.90;;;;;;5026696;28;20030;-73
2021/04/13 06:53:17;;;;;;;10.73;0.90;;;3.70;99.90;;;;;;5043004;28;20045;-70
2021/04/13 06:56:00;;;;;;;7.63;0.73;;;3.80;99.90;;;;;;5026475;28;20033;-73
2021/04/13 06:58:51;;;;;;;4.28;1.23;;;3.90;99.90;;;;;;5026688;28;20026;-74
2021/04/13 07:01:38;;;;;;;1.50;0.75;;;4.00;99.90;;;;;;5026210;28;20084;-74
2021/04/13 07:04:31;;;;;;;0.30;0.28;;;4.00;99.90;;;;;;5026139;28;20042;-73
2021/04/13 07:07:17;;;;;;;6.28;0.90;;;4.10;99.90;;;;;;5026239;28;20029;-73
2021/04/13 07:09:48;;;;;;;2.55;0.85;;;4.20;99.90;;;;;;5024971;28;20034;-73
2021/04/13 07:12:25;;;;;;;2.08;1.38;;;4.20;99.90;;;;;;5026396;28;20041;-74
2021/04/13 07:15:10;;;;;;;2.65;1.38;;;4.30;99.90;;;;;;5026784;28;20113;-74
2021/04/13 07:17:45;;;;;;;6.18;1.00;;;4.60;99.90;;;;;;5026225;28;20037;-73
2021/04/13 07:20:21;;;;;;;3.17;0.98;;;4.80;99.90;;;;;;5029066;28;20045;-74
2021/04/13 07:22:52;;;;;;;9.52;1.48;;;4.90;99.90;;;;;;5042982;28;20061;-71
2021/04/13 07:25:26;;;;;;;1.35;0.60;;;5.10;99.90;;;;;;5024733;28;20030;-73
2021/04/13 07:27:57;;;;;;;3.20;0.82;;;5.10;99.90;;;;;;5024859;28;20513;-72
2021/04/13 07:30:34;;;;;;;5.65;1.20;;;5.10;99.90;;;;;;5025993;28;20029;-72
2021/04/13 07:33:03;;;;;;;3.08;0.77;;;5.20;99.90;;;;;;5024786;28;20026;-75
2021/04/13 07:35:36;;;;;;;2.10;0.80;;;5.20;99.90;;;;;;5026008;28;20032;-71
2021/04/13 07:38:17;;;;;;;2.30;0.90;;;5.20;99.90;;;;;;5040901;28;20125;-73
2021/04/13 07:40:46;;;;;;;2.92;0.43;;;5.20;99.90;;;;;;5029311;28;20486;-71
2021/04/13 07:43:19;;;;;;;8.35;0.93;;;5.30;99.90;;;;;;5026005;28;20048;-72
2021/04/13 07:46:17;;;;;;;3.38;0.68;;;5.40;99.90;;;;;;5024372;28;20495;-74
2021/04/13 07:49:06;;;;;;;3.58;0.63;;;5.40;99.90;;;;;;5024376;28;20040;-77
2021/04/13 07:51:58;;;;;;;2.72;0.80;;;5.50;99.90;;;;;;5026009;28;20061;-75
2021/04/13 07:54:50;;;;;;;0.95;0.70;;;5.60;99.90;;;;;;5025645;28;20113;-75
2021/04/13 07:57:48;;;;;;;0.98;0.40;;;5.60;99.90;;;;;;5025278;28;20036;-74
2021/04/13 08:00:33;;;;;;;6.18;0.63;;;5.80;99.90;;;;;;5025445;28;20030;-76
2021/04/13 08:03:12;;;;;;;1.38;0.52;;;5.90;99.90;;;;;;5025262;28;20025;-72
2021/04/13 08:05:45;;;;;;;6.07;1.35;;;6.00;99.90;;;;;;5025121;28;20077;-74
2021/04/13 08:08:35;;;;;;;2.60;0.85;;;6.10;99.90;;;;;;5025320;28;20036;-75
2021/04/13 08:11:18;;;;;;;6.35;1.23;;;6.10;99.90;;;;;;5030068;28;20026;-76
2021/04/13 08:13:47;;;;;;;2.65;0.82;;;6.30;99.90;;;;;;5036990;28;20075;-74
2021/04/13 08:16:30;;;;;;;5.28;0.70;;;6.50;99.90;;;;;;5024537;28;20030;-74
2021/04/13 08:19:26;;;;;;;2.22;0.95;;;6.60;99.90;;;;;;5032616;28;20094;-72
2021/04/13 08:22:06;;;;;;;1.40;0.98;;;6.70;99.90;;;;;;5028872;28;20067;-72
2021/04/13 08:24:38;;;;;;;3.50;0.90;;;6.70;99.90;;;;;;5044944;28;20033;-72
2021/04/13 08:27:41;;;;;;;2.40;0.82;;;6.90;99.90;;;;;;5044862;28;20034;-74
2021/04/13 08:30:42;;;;;;;5.03;1.00;;;7.00;99.90;;;;;;5044784;28;20021;-73
2021/04/13 08:33:41;;;;;;;2.70;1.48;;;6.90;99.90;;;;;;5044724;28;20033;-73
2021/04/13 08:36:23;;;;;;;1.70;0.63;;;7.10;99.90;;;;;;5044677;28;20021;-74
2021/04/13 08:39:24;;;;;;;4.20;1.10;;;7.30;99.90;;;;;;5044141;28;20048;-76
2021/04/13 08:41:59;;;;;;;7.63;0.60;;;7.50;99.90;;;;;;5051181;28;20029;-73
2021/04/13 08:44:48;;;;;;;3.67;0.70;;;7.70;99.90;;;;;;5042831;28;20038;-72
2021/04/13 08:47:35;;;;;;;8.23;1.00;;;7.80;99.90;;;;;;5043998;28;20025;-72
2021/04/13 08:50:01;;;;;;;5.10;1.90;;;8.10;99.90;;;;;;5043954;28;20040;-71
2021/04/13 08:52:27;;;;;;;4.80;0.57;;;8.30;99.90;;;;;;5044060;28;20029;-73
2021/04/13 08:55:11;;;;;;;15.73;1.30;;;8.10;99.90;;;;;;5044021;28;20030;-76
2021/04/13 08:57:58;;;;;;;1.33;0.50;;;7.90;99.90;;;;;;5044281;28;20156;-73
2021/04/13 09:00:33;;;;;;;3.30;0.73;;;7.90;99.90;;;;;;5043877;28;20049;-73
2021/04/13 09:03:02;;;;;;;2.88;0.88;;;7.60;99.90;;;;;;5044247;28;20072;-73
2021/04/13 09:05:34;;;;;;;1.90;0.65;;;7.70;99.90;;;;;;5042644;28;20025;-73
2021/04/13 09:08:27;;;;;;;1.35;0.45;;;7.90;99.90;;;;;;5044364;28;20025;-73
2021/04/13 09:11:16;;;;;;;5.50;0.40;;;8.30;99.90;;;;;;5039474;28;20051;-76
2021/04/13 09:13:49;;;;;;;2.67;1.08;;;8.60;99.90;;;;;;5030997;28;20026;-73
2021/04/13 09:16:24;;;;;;;9.57;1.23;;;8.50;99.90;;;;;;5031172;28;20053;-74
2021/04/13 09:18:57;;;;;;;8.15;0.75;;;8.40;99.90;;;;;;5042665;28;20045;-75
2021/04/13 09:21:37;;;;;;;0.98;0.60;;;8.40;99.90;;;;;;5036071;28;20041;-73
2021/04/13 09:24:06;;;;;;;4.00;0.50;;;8.40;99.90;;;;;;5040801;28;20072;-73
2021/04/13 09:26:56;;;;;;;5.22;1.45;;;8.70;99.90;;;;;;5044121;28;20100;-72
2021/04/13 09:29:47;;;;;;;19.55;1.02;;;8.80;99.90;;;;;;5043375;28;20033;-74
2021/04/13 09:32:25;;;;;;;5.18;0.73;;;9.00;99.90;;;;;;5024184;28;20034;-73
2021/04/13 09:35:16;;;;;;;2.65;0.73;;;9.00;99.90;;;;;;5024461;28;20049;-74
2021/04/13 09:38:11;;;;;;;3.22;1.02;;;8.90;99.90;;;;;;5022831;28;20030;-72
2021/04/13 09:41:05;;;;;;;1.85;0.73;;;8.60;99.90;;;;;;5022522;28;20040;-71
2021/04/13 09:43:52;;;;;;;0.95;0.52;;;8.30;99.90;;;;;;5024107;28;20117;-74
2021/04/13 09:46:45;;;;;;;1.52;0.30;;;7.30;99.90;;;;;;5024455;28;20033;-73
2021/04/13 09:49:47;;;;;;;10.93;0.68;;;6.50;99.90;;;;;;5024193;28;20025;-75
2021/04/13 09:52:24;;;;;;;1.38;0.85;;;5.80;99.90;;;;;;5026052;28;20029;-74
2021/04/13 09:55:18;;;;;;;1.13;0.20;;;5.40;99.90;;;;;;5032944;28;20034;-74
2021/04/13 09:58:02;;;;;;;1.55;0.70;;;5.10;99.90;;;;;;5036552;28;20076;-75
2021/04/13 10:00:58;;;;;;;4.13;1.20;;;4.90;99.90;;;;;;5042922;28;20478;-77
2021/04/13 10:03:48;;;;;;;3.75;0.80;;;4.90;99.90;;;;;;5023011;28;20060;-76
2021/04/13 10:06:15;;;;;;;5.68;0.88;;;4.80;99.90;;;;;;5024479;28;20474;-76
2021/04/13 10:08:47;;;;;;;0.25;0.17;;;4.90;99.90;;;;;;5027544;28;20022;-76
2021/04/13 10:11:40;;;;;;;0.20;0.20;;;4.90;99.90;;;;;;5026241;28;20052;-75
2021/04/13 10:14:15;;;;;;;2.15;0.77;;;5.10;99.90;;;;;;5026244;28;20057;-75
2021/04/13 10:17:10;;;;;;;1.23;0.35;;;5.30;99.90;;;;;;5026053;28;20550;-77
2021/04/13 10:19:48;;;;;;;2.25;0.80;;;5.60;99.90;;;;;;5042547;28;20129;-77
2021/04/13 10:22:43;;;;;;;1.98;0.40;;;5.90;99.90;;;;;;5027135;28;20104;-78
2021/04/13 10:25:27;;;;;;;6.45;0.93;;;6.30;99.90;;;;;;5027318;28;20038;-78
2021/04/13 10:28:05;;;;;;;2.95;0.52;;;7.00;99.90;;;;;;5027346;28;20033;-76
2021/04/13 10:30:44;;;;;;;1.55;0.55;;;7.40;99.90;;;;;;5027396;28;20026;-75
2021/04/13 10:33:50;;;;;;;0.80;0.30;;;7.90;99.90;;;;;;5027311;28;20072;-76
2021/04/13 10:36:47;;;;;;;3.03;0.98;;;8.60;99.90;;;;;;5025680;28;20391;-74
2021/04/13 10:39:43;;;;;;;1.27;0.52;;;9.00;99.90;;;;;;5025692;28;20030;-76
2021/04/13 10:42:28;;;;;;;0.55;0.40;;;9.10;99.90;;;;;;5026815;28;20061;-77
2021/04/13 10:45:22;;;;;;;0.57;0.45;;;9.10;99.90;;;;;;5025781;28;20034;-75
2021/04/13 10:48:13;;;;;;;1.85;0.73;;;8.80;99.90;;;;;;5027265;28;20117;-74
2021/04/13 10:51:36;;;;;;;1.35;0.73;;;8.70;99.90;;;;;;5027650;28;20029;-73
2021/04/13 10:54:22;;;;;;;1.38;0.30;;;9.00;99.90;;;;;;5043820;28;20029;-77
2021/04/13 10:57:36;;;;;;;6.18;0.65;;;9.60;99.90;;;;;;5043204;28;20041;-75
2021/04/13 11:00:29;;;;;;;1.20;0.68;;;10.20;99.90;;;;;;5036993;28;20057;-73
2021/04/13 11:03:00;;;;;;;5.57;0.65;;;10.70;99.90;;;;;;5046287;28;20032;-76
2021/04/13 11:05:43;;;;;;;4.82;0.68;;;10.90;99.90;;;;;;5045967;28;20101;-74
2021/04/13 11:08:46;;;;;;;3.63;0.82;;;11.10;99.90;;;;;;5045889;28;20030;-76
2021/04/13 11:11:30;;;;;;;2.95;0.75;;;10.60;99.90;;;;;;5045728;28;20040;-76
2021/04/13 11:14:23;;;;;;;1.80;0.55;;;10.10;99.90;;;;;;5044489;28;20437;-75
2021/04/13 11:17:13;;;;;;;0.43;0.35;;;9.30;99.90;;;;;;5043882;28;20407;-76
2021/04/13 11:20:20;;;;;;;2.97;0.50;;;8.50;99.90;;;;;;5045185;28;20080;-75
2021/04/13 11:23:12;;;;;;;15.57;0.93;;;7.90;99.90;;;;;;5051713;28;20071;-74
2021/04/13 11:25:51;;;;;;;0.80;0.43;;;7.70;99.90;;;;;;5045308;28;20041;-75
2021/04/13 11:29:11;;;;;;;3.30;1.33;;;7.60;99.90;;;;;;5045176;28;20565;-72
2021/04/13 11:32:16;;;;;;;3.05;0.90;;;7.70;99.90;;;;;;5061767;28;20122;-73
2021/04/13 11:35:10;;;;;;;;;;;7.90;99.90;;;;;;5045686;28;20064;-74
2021/04/13 11:37:56;;;;;;;2.38;0.55;;;8.60;99.90;;;;;;5045343;28;19909;-75
2021/04/13 11:40:26;;;;;;;0.80;0.50;;;9.20;99.90;;;;;;5045472;28;20022;-75
2021/04/13 11:42:56;;;;;;;1.20;0.35;;;9.30;99.90;;;;;;5045320;28;20029;-73
2021/04/13 11:45:56;;;;;;;0.65;0.30;;;9.30;99.90;;;;;;5038908;28;20033;-76
2021/04/13 11:48:41;;;;;;;0.35;0.22;;;9.00;99.90;;;;;;5040766;28;20029;-73
2021/04/13 11:51:14;;;;;;;0.30;0.30;;;8.50;99.90;;;;;;5023943;28;20041;-73
2021/04/13 11:53:44;;;;;;;0.47;0.43;;;8.20;99.90;;;;;;5025390;28;20026;-75
2021/04/13 11:56:33;;;;;;;2.25;0.30;;;8.10;99.90;;;;;;5025301;28;20022;-72
2021/04/13 11:59:20;;;;;;;0.63;0.22;;;7.90;99.90;;;;;;5027128;28;20058;-76
2021/04/13 12:01:55;;;;;;;1.50;0.40;;;8.00;99.90;;;;;;5025089;28;20111;-75
2021/04/13 12:04:26;;;;;;;0.20;0.10;;;8.40;99.90;;;;;;5024817;28;20033;-74
2021/04/13 12:07:03;;;;;;;3.25;0.20;;;9.20;99.90;;;;;;5023916;28;20131;-73
2021/04/13 12:09:47;;;;;;;9.25;0.98;;;9.90;99.90;;;;;;5023771;28;20033;-75
2021/04/13 12:12:34;;;;;;;;;;;10.10;99.90;;;;;;5025257;28;20438;-75
2021/04/13 12:15:03;;;;;;;0.50;0.40;;;9.90;99.90;;;;;;5024747;28;19905;-72
2021/04/13 12:17:39;;;;;;;2.53;0.50;;;9.70;99.90;;;;;;5023502;28;20068;-75
2021/04/13 12:20:27;;;;;;;4.22;1.05;;;9.20;99.90;;;;;;5024344;28;20101;-78
2021/04/13 12:23:01;;;;;;;2.80;0.80;;;8.70;99.90;;;;;;5024874;28;20064;-76
2021/04/13 12:25:40;;;;;;;2.63;0.52;;;8.40;99.90;;;;;;5024958;28;20121;-75
2021/04/13 12:28:15;;;;;;;2.10;0.82;;;8.10;99.90;;;;;;5024073;28;20034;-73
2021/04/13 12:30:44;;;;;;;2.22;0.80;;;7.80;99.90;;;;;;5024618;28;20045;-74
2021/04/13 12:33:10;;;;;;;4.57;0.80;;;7.50;99.90;;;;;;5024581;28;20033;-72
2021/04/13 12:35:53;;;;;;;4.60;0.88;;;7.50;99.90;;;;;;5023829;28;20033;-73
2021/04/13 12:38:49;;;;;;;1.08;0.35;;;7.50;99.90;;;;;;5023274;28;20528;-74
2021/04/13 12:41:25;;;;;;;4.47;0.75;;;7.30;99.90;;;;;;5024403;28;20060;-75
2021/04/13 12:44:22;;;;;;;1.65;0.73;;;7.40;99.90;;;;;;5023132;28;20045;-74
2021/04/13 12:46:53;;;;;;;2.47;1.17;;;7.50;99.90;;;;;;5024288;28;20371;-75
2021/04/13 12:49:33;;;;;;;1.27;0.50;;;7.90;99.90;;;;;;5023156;28;20029;-73
2021/04/13 12:52:01;;;;;;;3.03;1.05;;;8.60;99.90;;;;;;5024574;28;20034;-74
2021/04/13 12:54:34;;;;;;;3.65;0.70;;;9.30;99.90;;;;;;5024421;28;20029;-74
2021/04/13 12:57:07;;;;;;;2.60;0.40;;;10.00;99.90;;;;;;5023103;28;20036;-75
2021/04/13 12:59:35;;;;;;;3.65;0.70;;;10.90;99.90;;;;;;5024385;28;20030;-73
2021/04/13 13:02:04;;;;;;;2.13;0.60;;;11.40;99.90;;;;;;5024489;28;20049;-75
2021/04/13 13:04:56;;;;;;;1.88;0.40;;;12.10;99.90;;;;;;5024194;28;20029;-76
2021/04/13 13:07:26;;;;;;;0.95;0.30;;;12.40;99.90;;;;;;5024550;28;20045;-77
2021/04/13 13:09:53;;;;;;;0.13;0.10;;;12.40;99.90;;;;;;5024690;28;20040;-75
2021/04/13 13:12:32;;;;;;;4.35;0.60;;;11.90;99.90;;;;;;5024212;28;20054;-75
2021/04/13 13:15:04;;;;;;;2.28;0.60;;;11.20;99.90;;;;;;5024269;28;20022;-76
2021/04/13 13:17:38;;;;;;;3.63;0.47;;;10.60;99.90;;;;;;5022757;28;20030;-75
2021/04/13 13:20:14;;;;;;;0.85;0.43;;;10.10;99.90;;;;;;5024084;28;20045;-76
2021/04/13 13:22:48;;;;;;;0.55;0.40;;;9.90;99.90;;;;;;5023966;28;20029;-75
2021/04/13 13:25:18;;;;;;;2.25;0.65;;;9.60;99.90;;;;;;5022849;28;20045;-75
2021/04/13 13:27:43;;;;;;;2.65;0.68;;;9.30;99.90;;;;;;5023755;28;20044;-76
2021/04/13 13:30:14;;;;;;;1.45;0.57;;;9.10;99.90;;;;;;5024124;28;20030;-74
2021/04/13 13:32:40;;;;;;;2.67;0.55;;;9.20;99.90;;;;;;5026475;28;20022;-77
2021/04/13 13:35:10;;;;;;;2.13;0.55;;;9.60;99.90;;;;;;5041535;28;20091;-76
2021/04/13 13:37:49;;;;;;;2.00;0.22;;;9.90;99.90;;;;;;5032052;28;20030;-76
2021/04/13 13:40:29;;;;;;;0.43;0.22;;;10.10;99.90;;;;;;5024937;28;20045;-75
2021/04/13 13:42:57;;;;;;;6.45;1.02;;;10.20;99.90;;;;;;5027807;28;20121;-76
2021/04/13 13:45:47;;;;;;;1.95;0.77;;;10.30;99.90;;;;;;5043264;28;20046;-76
2021/04/13 13:48:24;;;;;;;1.90;0.70;;;10.10;99.90;;;;;;5026115;28;20053;-73
2021/04/13 13:51:07;;;;;;;0.63;0.40;;;10.30;99.90;;;;;;5027791;28;20022;-75
2021/04/13 13:53:44;;;;;;;0.98;0.50;;;10.80;99.90;;;;;;5026242;28;20101;-77